Terminal Aerodrome Forecast
Issued by NWS Charleston, WV

Current Version | Previous Version | Text Only | Print | Product List | Glossary Off
Versions: 1 2 3 4 5 6 7 8 9 10 11 12 13 14 15 16 17 18 19 20 21

921
FTUS41 KRLX 241136
TAFPKB
TAF
KPKB 241136Z 2412/2512 09004KT 2SM -RA BR OVC021
     FM241400 11007KT P6SM OVC020
     FM242100 10009KT 3SM SHRA OVC020
     FM250000 14012G18KT P6SM OVC015
     FM250500 19007KT 5SM SHRA OVC015=

USA.gov is the U.S. government's official web portal to all federal, state and local government web resources and services.